createdAt,value
2024-02-29T12:02:16.200Z,9.28
2024-02-29T12:04:42.838Z,9.27
2024-02-29T12:07:09.508Z,9.34
2024-02-29T12:09:36.266Z,9.37
2024-02-29T12:12:03.176Z,9.37
2024-02-29T12:14:30.302Z,9.39
2024-02-29T12:16:57.175Z,9.39
2024-02-29T12:19:24.064Z,9.42
2024-02-29T12:21:52.324Z,9.49
2024-02-29T12:24:20.170Z,9.50
2024-02-29T12:26:49.605Z,9.51
2024-02-29T12:29:16.313Z,9.56
2024-02-29T12:31:43.246Z,9.61
2024-02-29T12:34:10.121Z,9.64
2024-02-29T12:36:37.006Z,9.64
2024-02-29T12:39:04.172Z,9.69
2024-02-29T12:41:30.976Z,9.72
2024-02-29T12:44:02.516Z,9.77
2024-02-29T12:46:29.771Z,9.77
2024-02-29T12:48:57.487Z,9.78
2024-02-29T12:51:24.942Z,9.75
2024-02-29T12:53:51.529Z,9.81
2024-02-29T12:56:18.168Z,9.88
2024-02-29T12:58:48.111Z,9.87
2024-02-29T13:01:16.464Z,9.92
2024-02-29T13:03:43.712Z,9.91
2024-02-29T13:06:11.709Z,9.83
2024-02-29T13:08:39.228Z,9.84
2024-02-29T13:11:06.429Z,9.83
2024-02-29T13:13:33.491Z,9.85
2024-02-29T13:16:00.510Z,9.88
2024-02-29T13:18:27.341Z,9.96
2024-02-29T13:20:54.096Z,10.01
2024-02-29T13:23:20.714Z,10.01
2024-02-29T13:25:47.742Z,9.91
2024-02-29T13:28:14.931Z,9.85
2024-02-29T13:30:42.052Z,9.87
2024-02-29T13:33:08.939Z,9.89
2024-02-29T13:35:35.575Z,9.91
2024-02-29T13:38:02.397Z,9.97
2024-02-29T13:40:29.583Z,10.14
2024-02-29T13:42:56.332Z,10.26
2024-02-29T13:45:23.101Z,10.29
2024-02-29T13:47:51.952Z,10.37
2024-02-29T13:50:21.565Z,10.54
2024-02-29T13:52:48.851Z,10.59
2024-02-29T13:55:16.066Z,10.53
2024-02-29T13:57:43.796Z,10.54
2024-02-29T14:00:11.801Z,10.58
2024-02-29T14:02:38.463Z,10.58
2024-02-29T14:05:06.422Z,10.51
2024-02-29T14:07:36.449Z,10.60
2024-02-29T14:10:03.765Z,10.52
2024-02-29T14:12:32.957Z,10.50
2024-02-29T14:14:59.575Z,10.47
2024-02-29T14:17:26.207Z,10.46
2024-02-29T14:19:52.967Z,10.49
2024-02-29T14:22:19.731Z,10.55
2024-02-29T14:24:48.313Z,10.48
2024-02-29T14:27:16.967Z,10.47
2024-02-29T14:29:43.544Z,10.44
2024-02-29T14:32:10.244Z,10.51
2024-02-29T14:34:37.291Z,10.53
2024-02-29T14:37:04.223Z,10.51
2024-02-29T14:39:31.944Z,10.51
2024-02-29T14:41:58.677Z,10.57
2024-02-29T14:44:25.348Z,10.52
2024-02-29T14:46:54.970Z,10.57
2024-02-29T14:49:22.068Z,10.52
2024-02-29T14:51:48.736Z,10.54
2024-02-29T14:54:15.896Z,10.58
2024-02-29T14:56:44.492Z,10.59
2024-02-29T14:59:12.160Z,10.49
2024-02-29T15:01:38.967Z,10.46
2024-02-29T15:04:05.974Z,10.48
2024-02-29T15:06:32.801Z,10.47
2024-02-29T15:08:59.459Z,10.48
2024-02-29T15:11:27.641Z,10.46
2024-02-29T15:13:54.660Z,10.44
2024-02-29T15:16:21.381Z,10.43
2024-02-29T15:18:48.192Z,10.47
2024-02-29T15:21:15.052Z,10.43
2024-02-29T15:23:41.926Z,10.39
2024-02-29T15:26:12.208Z,10.37
2024-02-29T15:28:42.217Z,10.40
2024-02-29T15:31:09.566Z,10.42
2024-02-29T15:33:36.415Z,10.39
2024-02-29T15:36:03.716Z,10.35
2024-02-29T15:38:30.609Z,10.33
2024-02-29T15:40:57.339Z,10.34
2024-02-29T15:43:24.008Z,10.32
2024-02-29T15:45:50.889Z,10.29
2024-02-29T15:48:17.662Z,10.24
2024-02-29T15:50:46.877Z,10.23
2024-02-29T15:53:16.325Z,10.21
2024-02-29T15:55:43.091Z,10.19
2024-02-29T15:58:10.178Z,10.17
2024-02-29T16:00:36.930Z,10.14
2024-02-29T16:03:07.244Z,10.11
2024-02-29T16:05:37.114Z,10.03
2024-02-29T16:08:05.407Z,10.05
2024-02-29T16:10:32.715Z,10.02
2024-02-29T16:12:59.836Z,9.97
2024-02-29T16:15:26.969Z,9.93
2024-02-29T16:17:54.031Z,9.89
2024-02-29T16:20:21.328Z,9.87
2024-02-29T16:22:48.452Z,9.85
2024-02-29T16:25:15.673Z,9.80
2024-02-29T16:27:42.717Z,9.76
2024-02-29T16:30:09.934Z,9.73
2024-02-29T16:32:36.765Z,9.68
2024-02-29T16:35:05.113Z,9.66
2024-02-29T16:37:31.861Z,9.62
2024-02-29T16:39:58.645Z,9.56
2024-02-29T16:42:25.277Z,9.56
2024-02-29T16:44:51.855Z,9.53
2024-02-29T16:47:18.690Z,9.49
2024-02-29T16:49:46.457Z,9.44
2024-02-29T16:52:15.186Z,9.42
2024-02-29T16:54:42.143Z,9.39
2024-02-29T16:57:09.009Z,9.34
2024-02-29T16:59:37.114Z,9.31
2024-02-29T17:02:04.206Z,9.28
2024-02-29T17:04:31.437Z,9.23
2024-02-29T17:06:58.055Z,9.19
2024-02-29T17:09:24.626Z,9.15
2024-02-29T17:11:51.427Z,9.09
2024-02-29T17:14:18.170Z,9.04
2024-02-29T17:16:44.742Z,8.98
2024-02-29T17:19:11.558Z,8.92
2024-02-29T17:21:41.083Z,8.85
2024-02-29T17:24:09.075Z,8.76
2024-02-29T17:26:35.747Z,8.69
2024-02-29T17:29:02.332Z,8.64
2024-02-29T17:31:28.986Z,8.54
2024-02-29T17:33:55.683Z,8.47
2024-02-29T17:36:23.629Z,8.37
2024-02-29T17:38:50.161Z,8.30
2024-02-29T17:41:17.725Z,8.24
2024-02-29T17:43:44.272Z,8.16
2024-02-29T17:46:11.029Z,8.07
2024-02-29T17:48:37.796Z,8.00
2024-02-29T17:51:08.325Z,7.94
2024-02-29T17:53:35.095Z,7.90
2024-02-29T17:56:01.988Z,7.82
2024-02-29T17:58:28.594Z,7.74
2024-02-29T18:00:57.752Z,7.72
2024-02-29T18:03:25.224Z,7.69
2024-02-29T18:05:52.157Z,7.67
2024-02-29T18:08:18.845Z,7.64
2024-02-29T18:10:45.599Z,7.60
2024-02-29T18:13:12.464Z,7.54
2024-02-29T18:15:39.072Z,7.45
2024-02-29T18:18:06.395Z,7.36
2024-02-29T18:20:33.345Z,7.23
2024-02-29T18:22:59.915Z,7.12
2024-02-29T18:25:29.426Z,7.03
2024-02-29T18:27:56.456Z,6.91
2024-02-29T18:30:23.200Z,6.84
2024-02-29T18:32:49.793Z,6.81
2024-02-29T18:35:16.804Z,6.78
2024-02-29T18:37:43.628Z,6.74
2024-02-29T18:40:12.774Z,6.63
2024-02-29T18:42:40.136Z,6.56
2024-02-29T18:45:07.818Z,6.50
2024-02-29T18:47:37.463Z,6.45
2024-02-29T18:50:06.081Z,6.45
2024-02-29T18:52:32.992Z,6.42
2024-02-29T18:54:59.880Z,6.43
2024-02-29T18:57:26.510Z,6.44
2024-02-29T18:59:53.155Z,6.45
2024-02-29T19:02:19.720Z,6.46
2024-02-29T19:04:51.634Z,6.43
2024-02-29T19:07:19.223Z,6.44
2024-02-29T19:09:46.434Z,6.42
2024-02-29T19:12:13.432Z,6.40
2024-02-29T19:14:40.382Z,6.34
2024-02-29T19:17:07.007Z,6.33
2024-02-29T19:19:33.623Z,6.30
2024-02-29T19:22:01.033Z,6.29
2024-02-29T19:24:27.715Z,6.32
2024-02-29T19:26:54.297Z,6.34
2024-02-29T19:29:21.208Z,6.30
2024-02-29T19:31:49.090Z,6.28
2024-02-29T19:34:15.762Z,6.23
2024-02-29T19:36:42.575Z,6.15
2024-02-29T19:39:09.375Z,6.07
2024-02-29T19:41:35.955Z,6.02
2024-02-29T19:44:02.515Z,5.96
2024-02-29T19:46:29.437Z,5.96
2024-02-29T19:48:56.226Z,6.00
2024-02-29T19:51:22.848Z,6.01
2024-02-29T19:53:49.660Z,6.03
2024-02-29T19:56:16.260Z,6.00
2024-02-29T19:58:42.865Z,5.94
2024-02-29T20:01:09.663Z,5.89
2024-02-29T20:03:36.348Z,5.85
2024-02-29T20:06:03.048Z,5.82
2024-02-29T20:08:29.900Z,5.77
2024-02-29T20:10:56.690Z,5.76
2024-02-29T20:13:23.887Z,5.76
2024-02-29T20:15:51.124Z,5.74
2024-02-29T20:18:19.229Z,5.74
2024-02-29T20:20:45.953Z,5.73
2024-02-29T20:23:13.069Z,5.67
2024-02-29T20:25:41.784Z,5.63
2024-02-29T20:28:09.035Z,5.62
2024-02-29T20:30:36.038Z,5.60
2024-02-29T20:33:02.636Z,5.60
2024-02-29T20:35:29.236Z,5.59
2024-02-29T20:37:56.227Z,5.56
2024-02-29T20:40:23.225Z,5.56
2024-02-29T20:42:49.864Z,5.55
2024-02-29T20:45:17.650Z,5.52
2024-02-29T20:47:45.006Z,5.63
2024-02-29T20:50:14.621Z,5.67
2024-02-29T20:52:43.439Z,5.65
2024-02-29T20:55:10.587Z,5.62
2024-02-29T20:57:37.617Z,5.62
2024-02-29T21:00:05.115Z,5.60
2024-02-29T21:02:31.778Z,5.61
2024-02-29T21:05:05.210Z,5.62
2024-02-29T21:07:35.674Z,5.64
2024-02-29T21:10:02.418Z,5.65
2024-02-29T21:12:29.419Z,5.64
2024-02-29T21:14:56.046Z,5.63
2024-02-29T21:17:22.829Z,5.61
2024-02-29T21:19:49.601Z,5.61
2024-02-29T21:22:16.274Z,5.60
2024-02-29T21:24:42.966Z,5.59
2024-02-29T21:27:09.858Z,5.56
2024-02-29T21:29:36.696Z,5.52
2024-02-29T21:32:03.963Z,5.46
2024-02-29T21:34:30.768Z,5.41
2024-02-29T21:36:57.600Z,5.33
2024-02-29T21:39:32.233Z,5.31
2024-02-29T21:42:03.948Z,5.34
2024-02-29T21:44:30.857Z,5.32
2024-02-29T21:46:57.466Z,5.30
2024-02-29T21:49:24.199Z,5.24
2024-02-29T21:51:51.760Z,5.23
2024-02-29T21:54:21.028Z,5.24
2024-02-29T21:56:47.981Z,5.22
2024-02-29T21:59:14.810Z,5.16
2024-02-29T22:01:41.488Z,5.16
2024-02-29T22:04:08.191Z,5.17
2024-02-29T22:06:35.064Z,5.06
2024-02-29T22:09:03.231Z,4.93
2024-02-29T22:11:29.987Z,4.89
2024-02-29T22:13:57.458Z,4.91
2024-02-29T22:16:24.537Z,4.78
2024-02-29T22:18:51.173Z,4.68
2024-02-29T22:21:28.159Z,4.59
2024-02-29T22:23:55.641Z,4.57
2024-02-29T22:26:24.843Z,4.56
2024-02-29T22:28:53.029Z,4.53
2024-02-29T22:31:20.406Z,4.52
2024-02-29T22:33:47.300Z,4.52
2024-02-29T22:36:14.562Z,4.58
2024-02-29T22:38:41.710Z,4.61
2024-02-29T22:41:08.396Z,4.60
2024-02-29T22:43:35.176Z,4.61
2024-02-29T22:46:02.110Z,4.60
2024-02-29T22:48:28.766Z,4.59
2024-02-29T22:50:55.443Z,4.59
2024-02-29T22:53:23.340Z,4.61
2024-02-29T22:55:51.475Z,4.72
2024-02-29T22:58:19.740Z,4.75
2024-02-29T23:00:53.145Z,4.78
2024-02-29T23:03:22.289Z,4.79
2024-02-29T23:05:49.499Z,4.69
2024-02-29T23:08:16.656Z,4.65
2024-02-29T23:10:43.533Z,4.67
2024-02-29T23:13:11.441Z,4.68
2024-02-29T23:15:38.127Z,4.76
2024-02-29T23:18:05.519Z,4.82
2024-02-29T23:20:32.737Z,4.85
2024-02-29T23:23:00.912Z,4.83
2024-02-29T23:25:27.908Z,4.84
2024-02-29T23:27:54.811Z,4.89
2024-02-29T23:30:21.699Z,4.94
2024-02-29T23:32:48.547Z,4.99
2024-02-29T23:35:15.637Z,5.03
2024-02-29T23:37:42.210Z,5.04
2024-02-29T23:40:09.577Z,5.05
2024-02-29T23:42:36.506Z,5.05
2024-02-29T23:45:03.092Z,5.08
2024-02-29T23:47:33.667Z,5.07
2024-02-29T23:50:01.086Z,5.05
2024-02-29T23:52:27.901Z,5.03
2024-02-29T23:54:54.510Z,5.03
2024-02-29T23:57:21.334Z,5.05
2024-02-29T23:59:48.120Z,5.08
